Time;durP1;ratioP1;P1;durP2;ratioP2;P2;SDS_P1;SDS_P2;PMS_P1;PMS_P2;Temp;Humidity;BMP_temperature;BMP_pressure;BME280_temperature;BME280_humidity;BME280_pressure;Samples;Min_cycle;Max_cycle;Signal;HPM_P1;HPM_P2
2022/02/06 00:02:07;;;;;;;7.43;4.53;;;;;;;;;;5027901;28;20029;-48
2022/02/06 00:04:35;;;;;;;8.95;5.18;;;;;;;;;;5026831;28;20667;-48
2022/02/06 00:07:01;;;;;;;11.20;4.60;;;;;;;;;;5032304;28;20409;-49
2022/02/06 00:09:28;;;;;;;10.63;4.40;;;;;;;;;;5036888;28;20489;-49
2022/02/06 00:11:54;;;;;;;9.73;4.80;;;;;;;;;;5031824;28;20064;-50
2022/02/06 00:14:21;;;;;;;6.78;3.65;;;;;;;;;;5028123;28;20322;-48
2022/02/06 00:16:47;;;;;;;7.65;3.40;;;;;;;;;;5028398;28;20104;-49
2022/02/06 00:19:13;;;;;;;7.28;3.80;;;;;;;;;;5027892;28;20112;-51
2022/02/06 00:21:39;;;;;;;7.97;3.05;;;;;;;;;;5033831;28;20113;-47
2022/02/06 00:24:08;;;;;;;8.38;3.83;;;;;;;;;;5046401;28;20025;-47
2022/02/06 00:26:43;;;;;;;6.63;3.30;;;;;;;;;;5048035;28;20028;-47
2022/02/06 00:29:22;;;;;;;7.63;3.20;;;;;;;;;;5045066;28;20132;-50
2022/02/06 00:31:54;;;;;;;7.07;3.05;;;;;;;;;;5048486;28;20107;-47
2022/02/06 00:35:27;;;;;;;5.97;3.03;;;;;;;;;;5038882;28;20037;-48
2022/02/06 00:40:01;;;;;;;6.63;3.30;;;;;;;;;;5028246;28;20037;-49
2022/02/06 00:42:27;;;;;;;5.05;2.35;;;;;;;;;;5029512;28;20034;-49
2022/02/06 00:44:54;;;;;;;5.55;2.90;;;;;;;;;;5027891;28;20424;-50
2022/02/06 00:47:21;;;;;;;4.22;2.28;;;;;;;;;;5027090;28;20508;-49
2022/02/06 00:49:47;;;;;;;6.90;2.97;;;;;;;;;;5027670;28;20018;-49
2022/02/06 00:52:22;;;;;;;7.00;2.63;;;;;;;;;;5030347;28;20032;-50
2022/02/06 00:54:47;;;;;;;5.22;2.45;;;;;;;;;;5041311;28;20044;-48
2022/02/06 00:57:14;;;;;;;4.43;2.40;;;;;;;;;;5027303;28;20057;-49
2022/02/06 00:59:39;;;;;;;4.63;2.00;;;;;;;;;;5027495;28;20033;-49
2022/02/06 01:02:05;;;;;;;7.65;2.70;;;;;;;;;;5028886;28;20527;-49
2022/02/06 01:04:34;;;;;;;3.33;2.35;;;;;;;;;;5047011;28;20060;-49
2022/02/06 01:07:01;;;;;;;3.45;2.20;;;;;;;;;;5047930;28;20079;-47
2022/02/06 01:09:27;;;;;;;4.38;2.08;;;;;;;;;;5048086;28;20481;-48
2022/02/06 01:11:54;;;;;;;3.10;1.83;;;;;;;;;;5030497;28;20113;-47
2022/02/06 01:19:37;;;;;;;3.60;1.98;;;;;;;;;;5026811;28;20413;-49
2022/02/06 01:22:08;;;;;;;4.88;2.33;;;;;;;;;;5026273;28;20041;-48
2022/02/06 01:27:31;;;;;;;8.95;3.00;;;;;;;;;;5026856;28;20036;-51
2022/02/06 01:29:58;;;;;;;6.70;2.70;;;;;;;;;;5026885;28;20034;-48
2022/02/06 01:32:34;;;;;;;7.00;3.20;;;;;;;;;;5025407;28;20526;-49
2022/02/06 01:35:09;;;;;;;5.03;2.72;;;;;;;;;;5027922;28;20061;-48
2022/02/06 01:37:50;;;;;;;6.90;2.88;;;;;;;;;;5026714;28;20124;-50
2022/02/06 01:40:52;;;;;;;4.93;2.20;;;;;;;;;;5025907;28;20443;-50
2022/02/06 01:43:09;;;;;;;6.03;2.20;;;;;;;;;;5026725;28;20033;-48
2022/02/06 02:04:50;;;;;;;6.32;3.38;;;;;;;;;;5026296;28;20036;-50
2022/02/06 02:16:01;;;;;;;6.80;3.05;;;;;;;;;;5045837;28;20086;-47
2022/02/06 02:18:44;;;;;;;5.53;3.20;;;;;;;;;;5028158;28;20041;-47
2022/02/06 02:32:09;;;;;;;5.72;3.05;;;;;;;;;;5045567;28;20112;-48
2022/02/06 02:46:01;;;;;;;3.72;2.00;;;;;;;;;;5053389;28;20025;-51
2022/02/06 02:48:24;;;;;;;4.43;2.10;;;;;;;;;;5027349;28;20037;-47
2022/02/06 02:50:57;;;;;;;5.03;2.15;;;;;;;;;;5025136;28;20030;-48
2022/02/06 02:53:38;;;;;;;3.50;2.13;;;;;;;;;;5025176;28;20029;-46
2022/02/06 03:01:09;;;;;;;3.58;1.70;;;;;;;;;;5024974;28;20116;-46
2022/02/06 03:03:38;;;;;;;5.57;2.42;;;;;;;;;;5025355;28;20390;-47
2022/02/06 03:06:06;;;;;;;4.45;1.88;;;;;;;;;;5030475;28;20025;-48
2022/02/06 03:08:35;;;;;;;3.30;2.10;;;;;;;;;;5044023;28;20172;-48
2022/02/06 03:11:05;;;;;;;4.28;2.20;;;;;;;;;;5045022;28;20044;-46
2022/02/06 03:14:18;;;;;;;6.25;2.13;;;;;;;;;;5044615;28;20639;-48
2022/02/06 03:16:25;;;;;;;5.10;2.60;;;;;;;;;;5045292;28;20029;-52
2022/02/06 03:21:23;;;;;;;8.60;3.72;;;;;;;;;;5041082;28;20040;-49
2022/02/06 03:23:55;;;;;;;6.85;3.22;;;;;;;;;;5034363;28;20075;-47
2022/02/06 03:26:22;;;;;;;5.95;3.00;;;;;;;;;;5025938;28;20029;-49
2022/02/06 03:28:49;;;;;;;6.32;2.67;;;;;;;;;;5025536;28;20036;-47
2022/02/06 03:31:15;;;;;;;7.40;2.72;;;;;;;;;;5032498;28;20029;-46
2022/02/06 03:33:42;;;;;;;4.95;2.65;;;;;;;;;;5046884;28;20048;-50
2022/02/06 03:36:08;;;;;;;4.57;2.50;;;;;;;;;;5046189;28;20025;-46
2022/02/06 03:38:34;;;;;;;7.53;2.95;;;;;;;;;;5045976;28;20029;-47
2022/02/06 03:41:05;;;;;;;5.80;2.63;;;;;;;;;;5040660;28;20081;-47
2022/02/06 03:46:05;;;;;;;7.53;3.03;;;;;;;;;;5026211;28;20032;-50
2022/02/06 03:49:00;;;;;;;;;;;;;;;;;;5026477;28;20072;-51
2022/02/06 03:51:20;;;;;;;8.35;3.13;;;;;;;;;;5025507;28;19909;-46
2022/02/06 03:53:51;;;;;;;5.43;2.88;;;;;;;;;;5026359;28;20025;-47
2022/02/06 03:56:19;;;;;;;7.85;3.22;;;;;;;;;;5026073;28;20497;-51
2022/02/06 03:58:45;;;;;;;4.35;2.50;;;;;;;;;;5025841;28;20505;-47
2022/02/06 04:01:12;;;;;;;6.97;2.55;;;;;;;;;;5031880;28;20107;-51
2022/02/06 04:03:38;;;;;;;6.05;3.22;;;;;;;;;;5046110;28;20029;-50
2022/02/06 04:06:04;;;;;;;6.13;2.85;;;;;;;;;;5046062;28;20321;-47
2022/02/06 04:08:33;;;;;;;3.55;2.35;;;;;;;;;;5045677;28;20087;-47
2022/02/06 04:10:59;;;;;;;7.55;2.58;;;;;;;;;;5034804;28;20033;-48
2022/02/06 04:13:27;;;;;;;6.35;2.40;;;;;;;;;;5025636;28;20021;-48
2022/02/06 04:16:00;;;;;;;5.90;2.20;;;;;;;;;;5029167;28;20497;-46
2022/02/06 04:19:18;;;;;;;5.32;2.63;;;;;;;;;;5031796;28;20021;-46
2022/02/06 04:21:15;;;;;;;4.78;2.50;;;;;;;;;;5036040;28;20037;-47
2022/02/06 04:23:42;;;;;;;5.60;2.40;;;;;;;;;;5043337;28;20025;-48
2022/02/06 04:26:09;;;;;;;5.07;2.28;;;;;;;;;;5040426;28;20373;-48
2022/02/06 04:28:36;;;;;;;6.72;2.88;;;;;;;;;;5043134;28;20025;-47
2022/02/06 04:31:03;;;;;;;6.43;2.30;;;;;;;;;;5029460;28;20026;-46
2022/02/06 04:33:29;;;;;;;5.30;2.50;;;;;;;;;;5025121;28;20579;-50
2022/02/06 04:35:58;;;;;;;5.43;2.53;;;;;;;;;;5024943;28;20102;-49
2022/02/06 04:44:33;;;;;;;6.75;2.47;;;;;;;;;;5028115;28;20427;-48
2022/02/06 04:55:11;;;;;;;7.18;3.05;;;;;;;;;;5027855;28;20479;-50
2022/02/06 05:17:30;;;;;;;5.43;2.90;;;;;;;;;;5027362;28;20160;-48
2022/02/06 05:30:26;;;;;;;8.10;2.78;;;;;;;;;;5026378;28;20543;-47
2022/02/06 05:35:19;;;;;;;5.97;3.05;;;;;;;;;;5027010;28;20045;-48
2022/02/06 05:37:45;;;;;;;8.02;3.33;;;;;;;;;;5026793;28;20029;-48
2022/02/06 05:40:11;;;;;;;4.45;2.50;;;;;;;;;;5026435;28;20504;-47
2022/02/06 05:42:37;;;;;;;5.65;2.83;;;;;;;;;;5026744;28;20033;-47
2022/02/06 05:45:03;;;;;;;5.65;2.70;;;;;;;;;;5026663;28;20097;-50
2022/02/06 05:47:29;;;;;;;6.28;3.03;;;;;;;;;;5026538;28;20025;-50
2022/02/06 05:49:56;;;;;;;4.72;2.25;;;;;;;;;;5027415;28;20033;-47
2022/02/06 05:52:23;;;;;;;4.13;2.22;;;;;;;;;;5025817;28;20076;-46
2022/02/06 05:54:49;;;;;;;5.93;2.75;;;;;;;;;;5026664;28;20647;-47
2022/02/06 05:57:15;;;;;;;4.13;2.20;;;;;;;;;;5026370;28;20025;-48
2022/02/06 05:59:42;;;;;;;6.63;2.60;;;;;;;;;;5026095;28;20076;-48
2022/02/06 06:02:08;;;;;;;6.25;2.88;;;;;;;;;;5025032;28;20021;-47
2022/02/06 06:04:35;;;;;;;6.82;2.95;;;;;;;;;;5026552;28;20120;-48
2022/02/06 06:07:05;;;;;;;6.05;3.00;;;;;;;;;;5026498;28;20021;-49
2022/02/06 06:09:32;;;;;;;5.13;2.70;;;;;;;;;;5026001;28;20045;-46
2022/02/06 06:11:58;;;;;;;5.47;2.60;;;;;;;;;;5026716;28;20056;-49
2022/02/06 06:14:31;;;;;;;5.90;2.80;;;;;;;;;;5025891;28;20044;-47
2022/02/06 06:16:57;;;;;;;5.82;2.78;;;;;;;;;;5026826;28;20547;-47
2022/02/06 06:19:23;;;;;;;5.03;2.75;;;;;;;;;;5025849;28;20421;-51
2022/02/06 06:21:55;;;;;;;6.30;3.08;;;;;;;;;;5026023;28;20068;-49
2022/02/06 06:24:23;;;;;;;6.30;3.03;;;;;;;;;;5030940;28;20024;-46
2022/02/06 06:26:51;;;;;;;5.75;2.80;;;;;;;;;;5046162;28;20013;-50
2022/02/06 06:29:17;;;;;;;4.82;2.15;;;;;;;;;;5037460;28;20128;-46
2022/02/06 06:31:43;;;;;;;4.45;2.45;;;;;;;;;;5025828;28;20055;-48
2022/02/06 06:34:09;;;;;;;5.93;2.58;;;;;;;;;;5025634;28;20419;-46
2022/02/06 06:36:36;;;;;;;6.93;3.50;;;;;;;;;;5026392;28;20053;-46
2022/02/06 06:39:06;;;;;;;7.15;3.95;;;;;;;;;;5025576;28;20471;-48
2022/02/06 06:41:33;;;;;;;6.97;3.63;;;;;;;;;;5025507;28;20026;-49
2022/02/06 06:43:59;;;;;;;5.82;3.40;;;;;;;;;;5026293;28;20029;-47
2022/02/06 06:46:25;;;;;;;7.20;3.42;;;;;;;;;;5027215;28;20025;-47
2022/02/06 06:48:51;;;;;;;7.90;3.67;;;;;;;;;;5040590;28;20018;-51
2022/02/06 06:51:17;;;;;;;9.40;4.03;;;;;;;;;;5027310;28;20571;-51
2022/02/06 06:53:45;;;;;;;4.80;2.83;;;;;;;;;;5027331;28;20029;-48
2022/02/06 06:56:24;;;;;;;5.55;3.13;;;;;;;;;;5040130;28;20024;-46
2022/02/06 06:58:52;;;;;;;8.75;3.35;;;;;;;;;;5044904;28;20021;-47
2022/02/06 07:03:49;;;;;;;5.85;2.65;;;;;;;;;;5045435;28;20079;-47
2022/02/06 07:06:15;;;;;;;3.80;2.30;;;;;;;;;;5045267;28;20447;-48
2022/02/06 07:08:42;;;;;;;4.95;2.40;;;;;;;;;;5045190;28;20060;-46
2022/02/06 07:11:08;;;;;;;4.20;2.60;;;;;;;;;;5045467;28;20104;-49
2022/02/06 07:13:34;;;;;;;6.20;3.33;;;;;;;;;;5045252;28;20443;-50
2022/02/06 07:16:00;;;;;;;5.82;2.97;;;;;;;;;;5045330;28;20025;-46
2022/02/06 07:18:26;;;;;;;5.32;2.95;;;;;;;;;;5045895;28;20056;-50
2022/02/06 07:20:53;;;;;;;5.88;3.00;;;;;;;;;;5045264;28;20115;-47
2022/02/06 07:23:19;;;;;;;6.80;3.13;;;;;;;;;;5044996;28;20029;-46
2022/02/06 07:25:49;;;;;;;8.00;3.25;;;;;;;;;;5045166;28;20068;-47
2022/02/06 07:28:18;;;;;;;6.70;3.05;;;;;;;;;;5044464;28;20025;-48
2022/02/06 07:30:45;;;;;;;7.25;3.88;;;;;;;;;;5045147;28;20021;-48
2022/02/06 07:33:13;;;;;;;6.03;3.05;;;;;;;;;;5045244;28;20514;-50
2022/02/06 07:35:39;;;;;;;7.82;3.65;;;;;;;;;;5045193;28;20029;-47
2022/02/06 07:38:06;;;;;;;8.70;3.95;;;;;;;;;;5044825;28;20104;-51
2022/02/06 07:40:32;;;;;;;7.72;4.47;;;;;;;;;;5044785;28;20036;-46
2022/02/06 07:42:59;;;;;;;7.63;4.28;;;;;;;;;;5045314;28;20492;-48
2022/02/06 07:45:26;;;;;;;9.82;4.28;;;;;;;;;;5045313;28;20025;-48
2022/02/06 07:47:52;;;;;;;7.15;3.92;;;;;;;;;;5045303;28;20381;-47
2022/02/06 07:50:18;;;;;;;8.07;4.30;;;;;;;;;;5044812;28;20079;-46
2022/02/06 07:52:45;;;;;;;7.47;3.85;;;;;;;;;;5038416;28;20040;-48
2022/02/06 07:55:11;;;;;;;7.22;4.05;;;;;;;;;;5034603;28;20036;-47
2022/02/06 07:57:38;;;;;;;6.78;4.10;;;;;;;;;;5047084;28;20025;-49
2022/02/06 08:00:05;;;;;;;7.97;3.92;;;;;;;;;;5045567;28;20519;-47
2022/02/06 08:02:31;;;;;;;10.77;4.20;;;;;;;;;;5045236;28;20021;-48
2022/02/06 08:04:59;;;;;;;6.18;4.00;;;;;;;;;;5028859;28;20492;-49
2022/02/06 08:07:25;;;;;;;9.57;4.95;;;;;;;;;;5026089;28;20481;-48
2022/02/06 08:09:56;;;;;;;8.95;4.55;;;;;;;;;;5032552;28;20690;-49
2022/02/06 08:12:34;;;;;;;7.15;4.40;;;;;;;;;;5032465;28;20112;-47
2022/02/06 08:15:03;;;;;;;6.72;3.80;;;;;;;;;;5029856;28;20164;-47
2022/02/06 08:17:29;;;;;;;6.75;3.30;;;;;;;;;;5050184;28;20029;-48
2022/02/06 08:19:56;;;;;;;8.82;3.90;;;;;;;;;;5049886;28;20110;-49
2022/02/06 08:22:23;;;;;;;7.70;3.47;;;;;;;;;;5048164;28;20365;-46
2022/02/06 08:24:50;;;;;;;7.85;3.92;;;;;;;;;;5049714;28;20055;-51
2022/02/06 08:27:17;;;;;;;6.72;3.22;;;;;;;;;;5034133;28;20072;-48
2022/02/06 08:29:45;;;;;;;9.23;4.05;;;;;;;;;;5029644;28;20037;-49
2022/02/06 08:32:12;;;;;;;9.00;4.18;;;;;;;;;;5029708;28;20029;-48
2022/02/06 08:34:38;;;;;;;8.27;4.85;;;;;;;;;;5029710;28;20556;-47
2022/02/06 08:37:05;;;;;;;8.73;4.75;;;;;;;;;;5029370;28;20029;-51
2022/02/06 08:39:31;;;;;;;9.77;4.47;;;;;;;;;;5029594;28;20048;-46
2022/02/06 08:41:59;;;;;;;6.03;3.75;;;;;;;;;;5029198;28;20125;-48
2022/02/06 08:44:25;;;;;;;8.38;4.18;;;;;;;;;;5028658;28;20492;-48
2022/02/06 08:46:51;;;;;;;4.65;3.30;;;;;;;;;;5034809;28;20029;-47
2022/02/06 08:49:18;;;;;;;6.93;3.75;;;;;;;;;;5038551;28;20033;-48
2022/02/06 08:51:48;;;;;;;7.57;3.95;;;;;;;;;;5027823;28;20026;-52
2022/02/06 08:54:14;;;;;;;7.50;3.55;;;;;;;;;;5027959;28;20028;-48
2022/02/06 08:56:40;;;;;;;8.52;3.83;;;;;;;;;;5027074;28;20026;-47
2022/02/06 08:59:07;;;;;;;5.82;3.22;;;;;;;;;;5033195;28;20029;-51
2022/02/06 09:01:34;;;;;;;5.05;3.17;;;;;;;;;;5028897;28;20037;-48
2022/02/06 09:04:00;;;;;;;6.40;4.30;;;;;;;;;;5030959;28;20101;-51
2022/02/06 09:06:26;;;;;;;6.03;4.25;;;;;;;;;;5028738;28;20049;-48
2022/02/06 09:08:57;;;;;;;6.75;3.88;;;;;;;;;;5027427;28;20029;-51
2022/02/06 09:11:31;;;;;;;7.05;4.30;;;;;;;;;;5028525;28;20040;-48
2022/02/06 09:13:58;;;;;;;6.65;3.58;;;;;;;;;;5029810;28;20340;-51
2022/02/06 09:16:26;;;;;;;6.50;3.10;;;;;;;;;;5037625;28;20113;-49
2022/02/06 09:18:52;;;;;;;5.05;3.08;;;;;;;;;;5028795;28;20040;-51
2022/02/06 09:21:21;;;;;;;4.90;3.05;;;;;;;;;;5028288;28;20544;-48
2022/02/06 09:23:47;;;;;;;7.00;3.88;;;;;;;;;;5028473;28;20090;-48
2022/02/06 09:26:13;;;;;;;5.38;3.17;;;;;;;;;;5027120;28;20025;-48
2022/02/06 09:28:39;;;;;;;5.88;4.15;;;;;;;;;;5035590;28;20021;-48
2022/02/06 09:31:05;;;;;;;6.35;3.40;;;;;;;;;;5031278;28;20404;-48
2022/02/06 09:35:58;;;;;;;6.10;3.47;;;;;;;;;;5029011;28;20112;-48
2022/02/06 09:38:25;;;;;;;6.25;3.35;;;;;;;;;;5028019;28;20026;-47
2022/02/06 09:40:53;;;;;;;4.53;2.97;;;;;;;;;;5028432;28;20456;-52
2022/02/06 09:43:21;;;;;;;4.43;3.10;;;;;;;;;;5043710;28;20036;-50
2022/02/06 09:45:48;;;;;;;5.60;2.78;;;;;;;;;;5044742;28;20028;-51
2022/02/06 09:48:15;;;;;;;3.75;2.40;;;;;;;;;;5033107;28;20390;-48
2022/02/06 09:50:45;;;;;;;4.10;2.15;;;;;;;;;;5047931;28;20488;-49
2022/02/06 09:53:12;;;;;;;4.43;2.08;;;;;;;;;;5041685;28;20036;-46
2022/02/06 09:55:39;;;;;;;4.75;2.33;;;;;;;;;;5028984;28;20084;-50
2022/02/06 09:58:39;;;;;;;2.53;1.55;;;;;;;;;;5027909;28;20035;-47
2022/02/06 10:01:01;;;;;;;1.70;1.33;;;;;;;;;;5027772;28;20033;-47
2022/02/06 10:03:28;;;;;;;2.05;1.45;;;;;;;;;;5028056;28;20028;-48
2022/02/06 10:05:54;;;;;;;2.47;1.40;;;;;;;;;;5029105;28;20029;-49
2022/02/06 10:08:30;;;;;;;2.80;1.67;;;;;;;;;;5031699;28;20416;-49
2022/02/06 10:11:07;;;;;;;3.33;2.10;;;;;;;;;;5030310;28;20025;-48
2022/02/06 10:13:37;;;;;;;5.55;3.00;;;;;;;;;;5027498;28;20096;-49
2022/02/06 10:16:04;;;;;;;5.20;2.90;;;;;;;;;;5027686;28;20087;-48
2022/02/06 10:18:31;;;;;;;7.72;3.13;;;;;;;;;;5035000;28;20492;-49
2022/02/06 10:20:57;;;;;;;6.15;2.85;;;;;;;;;;5047406;28;20033;-46
2022/02/06 10:23:37;;;;;;;5.43;3.25;;;;;;;;;;5047152;28;20399;-50
2022/02/06 10:26:08;;;;;;;6.90;3.45;;;;;;;;;;5047174;28;20028;-47
2022/02/06 10:31:04;;;;;;;7.55;3.58;;;;;;;;;;5046276;28;20514;-47
2022/02/06 10:33:52;;;;;;;7.10;3.53;;;;;;;;;;5046119;28;20094;-48
2022/02/06 10:36:22;;;;;;;5.75;3.15;;;;;;;;;;5046847;28;20044;-49
2022/02/06 10:38:59;;;;;;;5.18;2.70;;;;;;;;;;5045862;28;20056;-47
2022/02/06 10:41:26;;;;;;;5.40;2.67;;;;;;;;;;5029142;28;20036;-47
2022/02/06 10:44:03;;;;;;;5.68;3.20;;;;;;;;;;5026983;28;20505;-46
2022/02/06 10:46:30;;;;;;;4.30;2.63;;;;;;;;;;5025381;28;20078;-46
2022/02/06 10:48:58;;;;;;;5.20;2.85;;;;;;;;;;5027390;28;20028;-50
2022/02/06 10:51:36;;;;;;;4.88;3.03;;;;;;;;;;5031874;28;20508;-48
2022/02/06 10:54:02;;;;;;;4.75;2.58;;;;;;;;;;5045839;28;20078;-51
2022/02/06 10:56:28;;;;;;;5.00;2.67;;;;;;;;;;5027953;28;20603;-48
2022/02/06 10:59:06;;;;;;;4.10;2.40;;;;;;;;;;5027220;28;20021;-49
2022/02/06 11:01:32;;;;;;;5.13;2.63;;;;;;;;;;5039850;28;20033;-46
2022/02/06 11:04:25;;;;;;;3.75;2.33;;;;;;;;;;5047206;28;20032;-51
2022/02/06 11:07:06;;;;;;;4.90;2.35;;;;;;;;;;5046451;28;20021;-51
2022/02/06 11:09:33;;;;;;;5.32;2.63;;;;;;;;;;5038677;28;20068;-51
2022/02/06 11:11:59;;;;;;;5.38;2.15;;;;;;;;;;5042483;28;20127;-48
2022/02/06 11:14:28;;;;;;;4.40;2.30;;;;;;;;;;5046834;28;20067;-51
2022/02/06 11:16:55;;;;;;;3.03;2.20;;;;;;;;;;5045908;28;20040;-50
2022/02/06 11:19:21;;;;;;;4.20;2.42;;;;;;;;;;5041119;28;20075;-50
2022/02/06 11:22:06;;;;;;;4.97;2.40;;;;;;;;;;5027469;28;20067;-50
2022/02/06 11:24:36;;;;;;;3.53;2.28;;;;;;;;;;5038611;28;20088;-48
2022/02/06 11:27:02;;;;;;;4.03;2.10;;;;;;;;;;5032179;28;20078;-50
2022/02/06 11:29:31;;;;;;;3.13;1.92;;;;;;;;;;5030884;28;20029;-48
2022/02/06 11:31:57;;;;;;;4.00;2.50;;;;;;;;;;5041213;28;20034;-51
2022/02/06 11:34:23;;;;;;;5.10;2.47;;;;;;;;;;5028475;28;20027;-47
2022/02/06 11:45:41;;;;;;;3.28;2.25;;;;;;;;;;5028427;28;20045;-49
2022/02/06 11:48:08;;;;;;;2.53;1.83;;;;;;;;;;5037937;28;20036;-49
2022/02/06 11:50:37;;;;;;;3.47;2.05;;;;;;;;;;5039240;28;20025;-47
2022/02/06 11:53:04;;;;;;;3.05;1.95;;;;;;;;;;5026685;28;20114;-47
2022/02/06 11:55:43;;;;;;;2.97;1.52;;;;;;;;;;5031924;28;20021;-50
2022/02/06 11:58:28;;;;;;;3.08;1.65;;;;;;;;;;5044699;28;20082;-50
2022/02/06 12:01:06;;;;;;;3.63;2.05;;;;;;;;;;5034832;28;20121;-49
2022/02/06 12:03:52;;;;;;;3.28;1.65;;;;;;;;;;5026831;28;20057;-50
2022/02/06 12:06:24;;;;;;;1.83;1.30;;;;;;;;;;5026797;28;20041;-51
2022/02/06 12:08:59;;;;;;;3.03;1.42;;;;;;;;;;5026307;28;20069;-49
2022/02/06 12:11:34;;;;;;;1.88;1.05;;;;;;;;;;5032008;28;20044;-50
2022/02/06 12:14:19;;;;;;;1.88;1.33;;;;;;;;;;5026954;28;20025;-49
2022/02/06 12:16:56;;;;;;;3.40;1.40;;;;;;;;;;5027005;28;20017;-50
2022/02/06 12:19:29;;;;;;;2.53;1.50;;;;;;;;;;5026812;28;20025;-47
2022/02/06 12:21:58;;;;;;;3.15;1.70;;;;;;;;;;5027371;28;20030;-51
2022/02/06 12:24:37;;;;;;;2.65;1.27;;;;;;;;;;5026611;28;20661;-50
2022/02/06 12:27:23;;;;;;;1.90;1.42;;;;;;;;;;5026935;28;20029;-48
2022/02/06 12:29:52;;;;;;;1.08;0.98;;;;;;;;;;5031687;28;20029;-49
2022/02/06 12:32:31;;;;;;;1.13;0.88;;;;;;;;;;5046617;28;20036;-48
2022/02/06 12:37:42;;;;;;;1.33;1.10;;;;;;;;;;5041490;28;20091;-50
2022/02/06 12:40:16;;;;;;;1.40;0.93;;;;;;;;;;5046401;28;20072;-51
2022/02/06 12:42:44;;;;;;;1.30;1.10;;;;;;;;;;5046497;28;20025;-52
2022/02/06 12:45:11;;;;;;;3.15;1.45;;;;;;;;;;5046463;28;20037;-51
2022/02/06 12:47:43;;;;;;;2.63;1.75;;;;;;;;;;5046481;28;20025;-47
2022/02/06 12:50:30;;;;;;;2.28;1.30;;;;;;;;;;5044738;28;20564;-48
2022/02/06 12:52:56;;;;;;;2.30;1.23;;;;;;;;;;5047037;28;20033;-47
2022/02/06 12:55:26;;;;;;;2.10;1.23;;;;;;;;;;5045693;28;20064;-51
2022/02/06 12:57:53;;;;;;;1.33;1.10;;;;;;;;;;5046294;28;20029;-48
2022/02/06 13:00:39;;;;;;;2.78;1.70;;;;;;;;;;5047361;28;20032;-48
2022/02/06 13:03:21;;;;;;;2.22;1.60;;;;;;;;;;5050009;28;20033;-52
2022/02/06 13:05:51;;;;;;;2.10;1.40;;;;;;;;;;5034211;28;20068;-51
2022/02/06 13:08:17;;;;;;;1.00;0.80;;;;;;;;;;5029459;28;20037;-49
2022/02/06 13:10:51;;;;;;;2.72;0.90;;;;;;;;;;5029085;28;20075;-52
2022/02/06 13:13:21;;;;;;;2.47;0.90;;;;;;;;;;5030735;28;20515;-50
2022/02/06 13:16:02;;;;;;;1.38;1.00;;;;;;;;;;5028534;28;20082;-48
2022/02/06 13:21:31;;;;;;;2.30;1.00;;;;;;;;;;5028530;28;20618;-52
2022/02/06 13:32:15;;;;;;;2.33;1.20;;;;;;;;;;5040656;28;21216;-51
2022/02/06 13:37:43;;;;;;;2.38;1.20;;;;;;;;;;5029545;28;20141;-52
2022/02/06 13:40:15;;;;;;;1.77;1.10;;;;;;;;;;5029010;28;20041;-52
2022/02/06 13:42:54;;;;;;;2.97;1.17;;;;;;;;;;5038065;28;20394;-51
2022/02/06 13:45:23;;;;;;;1.60;1.25;;;;;;;;;;5035817;28;20036;-48
2022/02/06 13:47:50;;;;;;;1.63;1.05;;;;;;;;;;5032007;28;20223;-51
2022/02/06 13:50:16;;;;;;;1.58;1.10;;;;;;;;;;5037992;28;20025;-50
2022/02/06 13:52:45;;;;;;;2.15;1.30;;;;;;;;;;5032994;28;20040;-50
2022/02/06 13:55:12;;;;;;;2.25;1.10;;;;;;;;;;5036864;28;20033;-50
2022/02/06 13:57:39;;;;;;;2.28;1.35;;;;;;;;;;5039040;28;20033;-51
2022/02/06 14:00:13;;;;;;;3.92;1.98;;;;;;;;;;5039223;28;20061;-49
2022/02/06 14:02:50;;;;;;;2.13;1.50;;;;;;;;;;5033072;28;20155;-50
2022/02/06 14:05:16;;;;;;;3.13;1.30;;;;;;;;;;5033446;28;20037;-50
2022/02/06 14:07:42;;;;;;;2.65;1.38;;;;;;;;;;5033086;28;20412;-51
2022/02/06 14:10:12;;;;;;;2.00;1.17;;;;;;;;;;5037893;28;20396;-48
2022/02/06 14:12:48;;;;;;;2.88;1.30;;;;;;;;;;5031294;28;20116;-52
2022/02/06 14:15:25;;;;;;;2.72;1.63;;;;;;;;;;5029801;28;20411;-52
2022/02/06 14:17:53;;;;;;;3.17;1.65;;;;;;;;;;5033871;28;20029;-49
2022/02/06 14:20:24;;;;;;;2.95;1.73;;;;;;;;;;5042045;28;20024;-49
2022/02/06 14:22:53;;;;;;;3.33;1.65;;;;;;;;;;5040240;28;20111;-48
2022/02/06 14:25:28;;;;;;;3.97;1.90;;;;;;;;;;5028334;28;20033;-50
2022/02/06 14:27:55;;;;;;;2.80;1.80;;;;;;;;;;5031000;28;20482;-50
2022/02/06 14:30:22;;;;;;;3.38;1.70;;;;;;;;;;5030635;28;20021;-49
2022/02/06 14:33:05;;;;;;;2.58;1.67;;;;;;;;;;5036455;28;20344;-49
2022/02/06 14:35:52;;;;;;;5.15;1.77;;;;;;;;;;5034454;28;20061;-50
2022/02/06 14:38:25;;;;;;;2.90;1.85;;;;;;;;;;5027334;28;20068;-50
2022/02/06 14:41:05;;;;;;;4.35;2.20;;;;;;;;;;5033992;28;20032;-51
2022/02/06 14:43:35;;;;;;;4.45;2.30;;;;;;;;;;5036198;28;20033;-47
2022/02/06 14:46:03;;;;;;;3.63;2.30;;;;;;;;;;5025256;28;20022;-51
2022/02/06 14:48:29;;;;;;;3.97;1.95;;;;;;;;;;5029160;28;20027;-47
2022/02/06 14:50:55;;;;;;;2.88;1.92;;;;;;;;;;5031535;28;20052;-47
2022/02/06 14:53:22;;;;;;;3.00;2.20;;;;;;;;;;5033739;28;20032;-52
2022/02/06 14:55:50;;;;;;;2.20;1.63;;;;;;;;;;5027825;28;20087;-48
2022/02/06 14:58:16;;;;;;;2.17;1.40;;;;;;;;;;5041247;28;20030;-49
2022/02/06 15:00:43;;;;;;;1.63;1.15;;;;;;;;;;5044079;28;20029;-50
2022/02/06 15:03:11;;;;;;;2.22;1.17;;;;;;;;;;5034825;28;20033;-51
2022/02/06 15:05:37;;;;;;;1.20;0.98;;;;;;;;;;5044392;28;20129;-48
2022/02/06 15:08:04;;;;;;;1.40;1.10;;;;;;;;;;5039012;28;20075;-49
2022/02/06 15:10:31;;;;;;;2.30;1.10;;;;;;;;;;5033054;28;20112;-46
2022/02/06 15:12:57;;;;;;;2.15;1.13;;;;;;;;;;5025280;28;20026;-48
2022/02/06 15:15:31;;;;;;;2.00;0.90;;;;;;;;;;5024314;28;20025;-47
2022/02/06 15:18:01;;;;;;;1.05;0.80;;;;;;;;;;5024898;28;20025;-49
2022/02/06 15:20:27;;;;;;;1.33;0.73;;;;;;;;;;5030424;28;20080;-50
2022/02/06 15:22:53;;;;;;;1.27;0.80;;;;;;;;;;5025867;28;20049;-51
2022/02/06 15:25:20;;;;;;;1.60;0.77;;;;;;;;;;5027888;28;20029;-51
2022/02/06 15:27:48;;;;;;;0.57;0.57;;;;;;;;;;5044395;28;20036;-50
2022/02/06 15:30:14;;;;;;;1.58;0.68;;;;;;;;;;5022934;28;20032;-48
2022/02/06 15:32:40;;;;;;;0.82;0.55;;;;;;;;;;5026763;28;20508;-51
2022/02/06 15:35:06;;;;;;;0.80;0.65;;;;;;;;;;5033027;28;20033;-51
2022/02/06 15:37:32;;;;;;;1.23;0.90;;;;;;;;;;5033864;28;20379;-51
2022/02/06 15:39:59;;;;;;;0.65;0.50;;;;;;;;;;5036148;28;20036;-50
2022/02/06 15:42:25;;;;;;;1.33;0.80;;;;;;;;;;5037722;28;20464;-50
2022/02/06 15:44:53;;;;;;;1.70;0.90;;;;;;;;;;5030101;28;20025;-46
2022/02/06 15:47:19;;;;;;;1.10;0.82;;;;;;;;;;5025632;28;20564;-48
2022/02/06 15:49:45;;;;;;;1.83;0.90;;;;;;;;;;5029610;28;20363;-48
2022/02/06 15:52:11;;;;;;;2.65;1.08;;;;;;;;;;5030891;28;20044;-50
2022/02/06 15:54:37;;;;;;;2.92;1.38;;;;;;;;;;5024816;28;20495;-50
2022/02/06 15:57:05;;;;;;;3.92;1.70;;;;;;;;;;5029423;28;20025;-50
2022/02/06 15:59:31;;;;;;;1.77;1.20;;;;;;;;;;5030601;28;20033;-48
2022/02/06 16:01:57;;;;;;;2.28;1.40;;;;;;;;;;5042692;28;20040;-48
2022/02/06 16:04:23;;;;;;;3.08;1.20;;;;;;;;;;5024085;28;20482;-51
2022/02/06 16:06:52;;;;;;;1.20;0.82;;;;;;;;;;5030434;28;20117;-46
2022/02/06 16:09:26;;;;;;;1.60;0.90;;;;;;;;;;5040515;28;20025;-48
2022/02/06 16:11:52;;;;;;;;;;;;;;;;;;5025025;28;20083;-48
2022/02/06 16:14:18;;;;;;;1.52;0.80;;;;;;;;;;5029143;28;19923;-48
2022/02/06 16:16:45;;;;;;;0.60;0.60;;;;;;;;;;5037269;28;20025;-48
2022/02/06 16:19:11;;;;;;;2.58;1.00;;;;;;;;;;5032706;28;20084;-51
2022/02/06 16:21:37;;;;;;;1.50;0.80;;;;;;;;;;5036950;28;20033;-51
2022/02/06 16:24:03;;;;;;;1.00;0.70;;;;;;;;;;5037509;28;20040;-50
2022/02/06 16:26:29;;;;;;;0.80;0.70;;;;;;;;;;5033126;28;20468;-50
2022/02/06 16:28:57;;;;;;;1.08;0.70;;;;;;;;;;5039067;28;20043;-51
2022/02/06 16:31:23;;;;;;;1.50;1.10;;;;;;;;;;5035271;28;20033;-48
2022/02/06 16:33:51;;;;;;;2.67;1.10;;;;;;;;;;5030663;28;20021;-50
2022/02/06 16:36:17;;;;;;;1.45;1.00;;;;;;;;;;5038383;28;20116;-49
2022/02/06 16:38:44;;;;;;;1.95;1.00;;;;;;;;;;5037576;28;20265;-49
2022/02/06 16:41:11;;;;;;;2.28;1.00;;;;;;;;;;5035260;28;20040;-50
2022/02/06 16:43:37;;;;;;;1.40;0.95;;;;;;;;;;5038806;28;20555;-50
2022/02/06 16:46:03;;;;;;;1.05;0.90;;;;;;;;;;5036586;28;20431;-49
2022/02/06 16:48:30;;;;;;;1.23;1.00;;;;;;;;;;5028536;28;20064;-46
2022/02/06 16:50:56;;;;;;;1.23;1.00;;;;;;;;;;5038096;28;20584;-49
2022/02/06 16:53:23;;;;;;;1.17;0.90;;;;;;;;;;5036990;28;20032;-51
2022/02/06 16:55:49;;;;;;;1.52;1.00;;;;;;;;;;5038147;28;20087;-50
2022/02/06 16:58:16;;;;;;;2.00;1.55;;;;;;;;;;5034054;28;20061;-51
2022/02/06 17:00:44;;;;;;;2.25;1.30;;;;;;;;;;5030302;28;20036;-49
2022/02/06 17:03:10;;;;;;;2.58;1.35;;;;;;;;;;5044551;28;20021;-48
2022/02/06 17:05:36;;;;;;;2.03;1.20;;;;;;;;;;5037674;28;20022;-51
2022/02/06 17:08:02;;;;;;;2.90;1.33;;;;;;;;;;5045654;28;20028;-50
2022/02/06 17:10:31;;;;;;;2.40;1.30;;;;;;;;;;5047136;28;20087;-47
2022/02/06 17:13:00;;;;;;;1.95;1.30;;;;;;;;;;5040017;28;20040;-50
2022/02/06 17:15:27;;;;;;;1.65;1.13;;;;;;;;;;5030897;28;20111;-48
2022/02/06 17:17:53;;;;;;;1.95;1.00;;;;;;;;;;5038359;28;20031;-51
2022/02/06 17:20:20;;;;;;;2.47;1.33;;;;;;;;;;5035527;28;20115;-50
2022/02/06 17:22:48;;;;;;;1.20;1.08;;;;;;;;;;5036031;28;20113;-49
2022/02/06 17:25:14;;;;;;;1.13;1.00;;;;;;;;;;5029259;28;20032;-51
2022/02/06 17:27:40;;;;;;;1.30;1.10;;;;;;;;;;5042066;28;20025;-49